sensor_id;sensor_type;location;lat;lon;timestamp;pressure;altitude;pressure_sealevel;temperature;humidity
54648;BME280;40543;53.584;9.858;2023-03-24T00:01:59;54439.81;;;-144.59;100.00
54648;BME280;40543;53.584;9.858;2023-03-24T00:04:25;54504.50;;;-144.59;100.00
54648;BME280;40543;53.584;9.858;2023-03-24T00:06:51;54508.53;;;-144.59;100.00
54648;BME280;40543;53.584;9.858;2023-03-24T00:09:18;54464.06;;;-144.59;100.00
54648;BME280;40543;53.584;9.858;2023-03-24T00:11:43;54476.19;;;-144.59;100.00
54648;BME280;40543;53.584;9.858;2023-03-24T00:14:09;54460.03;;;-144.59;100.00
54648;BME280;40543;53.584;9.858;2023-03-24T00:16:37;54435.75;;;-144.59;100.00
54648;BME280;40543;53.584;9.858;2023-03-24T00:19:07;54496.41;;;-144.59;100.00
54648;BME280;40543;53.584;9.858;2023-03-24T00:21:32;54466.09;;;-144.59;100.00
54648;BME280;40543;53.584;9.858;2023-03-24T00:23:58;54500.44;;;-144.59;100.00
54648;BME280;40543;53.584;9.858;2023-03-24T00:26:25;54447.88;;;-144.59;100.00
54648;BME280;40543;53.584;9.858;2023-03-24T00:28:51;54512.59;;;-144.59;100.00
54648;BME280;40543;53.584;9.858;2023-03-24T00:31:17;54464.06;;;-144.59;100.00
54648;BME280;40543;53.584;9.858;2023-03-24T00:33:44;54464.06;;;-144.59;100.00
54648;BME280;40543;53.584;9.858;2023-03-24T00:36:15;54520.66;;;-144.59;100.00
54648;BME280;40543;53.584;9.858;2023-03-24T00:38:41;54504.50;;;-144.59;100.00
54648;BME280;40543;53.584;9.858;2023-03-24T00:41:07;54451.94;;;-144.59;100.00
54648;BME280;40543;53.584;9.858;2023-03-24T00:43:34;54478.22;;;-144.59;100.00
54648;BME280;40543;53.584;9.858;2023-03-24T00:46:02;54484.28;;;-144.59;100.00
54648;BME280;40543;53.584;9.858;2023-03-24T00:48:28;54480.25;;;-144.59;100.00
54648;BME280;40543;53.584;9.858;2023-03-24T00:50:54;54472.16;;;-144.59;100.00
54648;BME280;40543;53.584;9.858;2023-03-24T00:53:21;54451.94;;;-144.59;100.00
54648;BME280;40543;53.584;9.858;2023-03-24T00:55:54;54508.53;;;-144.59;100.00
54648;BME280;40543;53.584;9.858;2023-03-24T00:58:20;54476.19;;;-144.59;100.00
54648;BME280;40543;53.584;9.858;2023-03-24T01:00:49;54472.16;;;-144.59;100.00
54648;BME280;40543;53.584;9.858;2023-03-24T01:03:16;54470.13;;;-144.59;100.00
54648;BME280;40543;53.584;9.858;2023-03-24T01:05:42;54480.25;;;-144.59;100.00
54648;BME280;40543;53.584;9.858;2023-03-24T01:08:14;54508.53;;;-144.59;100.00
54648;BME280;40543;53.584;9.858;2023-03-24T01:10:40;54478.22;;;-144.59;100.00
54648;BME280;40543;53.584;9.858;2023-03-24T01:13:15;54478.22;;;-144.59;100.00
54648;BME280;40543;53.584;9.858;2023-03-24T01:15:41;54496.41;;;-144.59;100.00
54648;BME280;40543;53.584;9.858;2023-03-24T01:18:07;54443.84;;;-144.59;100.00
54648;BME280;40543;53.584;9.858;2023-03-24T01:20:34;54486.31;;;-144.59;100.00
54648;BME280;40543;53.584;9.858;2023-03-24T01:23:02;54510.56;;;-144.59;100.00
54648;BME280;40543;53.584;9.858;2023-03-24T01:25:29;54500.44;;;-144.59;100.00
54648;BME280;40543;53.584;9.858;2023-03-24T01:27:55;54480.25;;;-144.59;100.00
54648;BME280;40543;53.584;9.858;2023-03-24T01:30:24;54516.63;;;-144.59;100.00
54648;BME280;40543;53.584;9.858;2023-03-24T01:32:50;54449.91;;;-144.59;100.00
54648;BME280;40543;53.584;9.858;2023-03-24T01:35:16;54532.81;;;-144.59;100.00
54648;BME280;40543;53.584;9.858;2023-03-24T01:37:42;54502.47;;;-144.59;100.00
54648;BME280;40543;53.584;9.858;2023-03-24T01:40:08;54486.31;;;-144.59;100.00
54648;BME280;40543;53.584;9.858;2023-03-24T01:42:36;54466.09;;;-144.59;100.00
54648;BME280;40543;53.584;9.858;2023-03-24T01:48:15;54435.75;;;-144.59;100.00
54648;BME280;40543;53.584;9.858;2023-03-24T01:50:43;54488.31;;;-144.59;100.00
54648;BME280;40543;53.584;9.858;2023-03-24T01:53:11;54502.47;;;-144.59;100.00
54648;BME280;40543;53.584;9.858;2023-03-24T01:55:37;54474.16;;;-144.59;100.00
54648;BME280;40543;53.584;9.858;2023-03-24T01:58:03;54484.28;;;-144.59;100.00
54648;BME280;40543;53.584;9.858;2023-03-24T02:00:31;54482.25;;;-144.59;100.00
54648;BME280;40543;53.584;9.858;2023-03-24T02:03:02;54508.53;;;-144.59;100.00
54648;BME280;40543;53.584;9.858;2023-03-24T02:05:34;54528.75;;;-144.59;100.00
54648;BME280;40543;53.584;9.858;2023-03-24T02:08:07;54464.06;;;-144.59;100.00
54648;BME280;40543;53.584;9.858;2023-03-24T02:10:35;54500.44;;;-144.59;100.00
54648;BME280;40543;53.584;9.858;2023-03-24T02:13:02;54476.19;;;-144.59;100.00
54648;BME280;40543;53.584;9.858;2023-03-24T02:15:30;54534.81;;;-144.59;100.00
54648;BME280;40543;53.584;9.858;2023-03-24T02:24:03;54498.44;;;-144.59;100.00
54648;BME280;40543;53.584;9.858;2023-03-24T02:26:46;54462.03;;;-144.59;100.00
54648;BME280;40543;53.584;9.858;2023-03-24T02:32:17;54460.03;;;-144.59;100.00
54648;BME280;40543;53.584;9.858;2023-03-24T02:42:24;54472.16;;;-144.59;100.00
54648;BME280;40543;53.584;9.858;2023-03-24T02:48:02;54526.72;;;-144.59;100.00
54648;BME280;40543;53.584;9.858;2023-03-24T02:50:50;54530.78;;;-144.59;100.00
54648;BME280;40543;53.584;9.858;2023-03-24T02:53:37;54504.50;;;-144.59;100.00
54648;BME280;40543;53.584;9.858;2023-03-24T02:59:24;54502.47;;;-144.59;100.00
54648;BME280;40543;53.584;9.858;2023-03-24T03:01:56;54508.53;;;-144.59;100.00
54648;BME280;40543;53.584;9.858;2023-03-24T03:04:29;54510.56;;;-144.59;100.00
54648;BME280;40543;53.584;9.858;2023-03-24T03:06:58;54518.66;;;-144.59;100.00
54648;BME280;40543;53.584;9.858;2023-03-24T03:09:26;54504.50;;;-144.59;100.00
54648;BME280;40543;53.584;9.858;2023-03-24T03:11:56;54470.13;;;-144.59;100.00
54648;BME280;40543;53.584;9.858;2023-03-24T03:16:56;54528.75;;;-144.59;100.00
54648;BME280;40543;53.584;9.858;2023-03-24T03:19:32;54492.38;;;-144.59;100.00
54648;BME280;40543;53.584;9.858;2023-03-24T03:22:01;54480.25;;;-144.59;100.00
54648;BME280;40543;53.584;9.858;2023-03-24T03:24:36;54508.53;;;-144.59;100.00
54648;BME280;40543;53.584;9.858;2023-03-24T03:27:09;54514.59;;;-144.59;100.00
54648;BME280;40543;53.584;9.858;2023-03-24T03:29:40;54544.94;;;-144.59;100.00
54648;BME280;40543;53.584;9.858;2023-03-24T03:32:13;54555.03;;;-144.59;100.00
54648;BME280;40543;53.584;9.858;2023-03-24T03:34:52;54516.63;;;-144.59;100.00
54648;BME280;40543;53.584;9.858;2023-03-24T03:40:34;54502.47;;;-144.59;100.00
54648;BME280;40543;53.584;9.858;2023-03-24T03:43:02;54502.47;;;-144.59;100.00
54648;BME280;40543;53.584;9.858;2023-03-24T03:45:28;54520.66;;;-144.59;100.00
54648;BME280;40543;53.584;9.858;2023-03-24T03:47:53;54516.63;;;-144.59;100.00
54648;BME280;40543;53.584;9.858;2023-03-24T03:50:19;54526.72;;;-144.59;100.00
54648;BME280;40543;53.584;9.858;2023-03-24T03:52:45;54512.59;;;-144.59;100.00
54648;BME280;40543;53.584;9.858;2023-03-24T03:55:11;54492.38;;;-144.59;100.00
54648;BME280;40543;53.584;9.858;2023-03-24T03:57:37;54508.53;;;-144.59;100.00
54648;BME280;40543;53.584;9.858;2023-03-24T04:00:05;54466.09;;;-144.59;100.00
54648;BME280;40543;53.584;9.858;2023-03-24T04:05:24;54492.38;;;-144.59;100.00
54648;BME280;40543;53.584;9.858;2023-03-24T04:13:48;54482.25;;;-144.59;100.00
54648;BME280;40543;53.584;9.858;2023-03-24T04:16:20;54498.44;;;-144.59;100.00
54648;BME280;40543;53.584;9.858;2023-03-24T04:19:21;54508.53;;;-144.59;100.00
54648;BME280;40543;53.584;9.858;2023-03-24T04:22:24;54512.59;;;-144.59;100.00
54648;BME280;40543;53.584;9.858;2023-03-24T04:24:54;54504.50;;;-144.59;100.00
54648;BME280;40543;53.584;9.858;2023-03-24T04:27:38;54512.59;;;-144.59;100.00
54648;BME280;40543;53.584;9.858;2023-03-24T04:30:11;54516.63;;;-144.59;100.00
54648;BME280;40543;53.584;9.858;2023-03-24T04:32:54;54474.16;;;-144.59;100.00
54648;BME280;40543;53.584;9.858;2023-03-24T04:37:58;54536.84;;;-144.59;100.00
54648;BME280;40543;53.584;9.858;2023-03-24T04:40:28;54443.84;;;-144.59;100.00
54648;BME280;40543;53.584;9.858;2023-03-24T04:42:59;54546.94;;;-144.59;100.00
54648;BME280;40543;53.584;9.858;2023-03-24T04:45:27;54476.19;;;-144.59;100.00
54648;BME280;40543;53.584;9.858;2023-03-24T04:47:58;54512.59;;;-144.59;100.00
54648;BME280;40543;53.584;9.858;2023-03-24T04:50:31;54492.38;;;-144.59;100.00
54648;BME280;40543;53.584;9.858;2023-03-24T04:52:56;54496.41;;;-144.59;100.00
54648;BME280;40543;53.584;9.858;2023-03-24T04:58:15;54516.63;;;-144.59;100.00
54648;BME280;40543;53.584;9.858;2023-03-24T05:00:41;54514.59;;;-144.59;100.00
54648;BME280;40543;53.584;9.858;2023-03-24T05:03:08;54494.38;;;-144.59;100.00
54648;BME280;40543;53.584;9.858;2023-03-24T05:05:45;54478.22;;;-144.59;100.00
54648;BME280;40543;53.584;9.858;2023-03-24T05:08:11;54526.72;;;-144.59;100.00
54648;BME280;40543;53.584;9.858;2023-03-24T05:10:37;54504.50;;;-144.59;100.00
54648;BME280;40543;53.584;9.858;2023-03-24T05:13:04;54502.47;;;-144.59;100.00
54648;BME280;40543;53.584;9.858;2023-03-24T05:15:30;54528.75;;;-144.59;100.00
54648;BME280;40543;53.584;9.858;2023-03-24T05:17:55;54478.22;;;-144.59;100.00
54648;BME280;40543;53.584;9.858;2023-03-24T05:20:21;54504.50;;;-144.59;100.00
54648;BME280;40543;53.584;9.858;2023-03-24T05:22:47;54482.25;;;-144.59;100.00
54648;BME280;40543;53.584;9.858;2023-03-24T05:25:14;54532.81;;;-144.59;100.00
54648;BME280;40543;53.584;9.858;2023-03-24T05:27:40;54486.31;;;-144.59;100.00
54648;BME280;40543;53.584;9.858;2023-03-24T05:30:06;54498.44;;;-144.59;100.00
54648;BME280;40543;53.584;9.858;2023-03-24T05:32:32;54486.31;;;-144.59;100.00
54648;BME280;40543;53.584;9.858;2023-03-24T05:34:57;54480.25;;;-144.59;100.00
54648;BME280;40543;53.584;9.858;2023-03-24T05:37:23;54532.81;;;-144.59;100.00
54648;BME280;40543;53.584;9.858;2023-03-24T05:39:48;54528.75;;;-144.59;100.00
54648;BME280;40543;53.584;9.858;2023-03-24T05:42:14;54498.44;;;-144.59;100.00
54648;BME280;40543;53.584;9.858;2023-03-24T05:44:40;54451.94;;;-144.59;100.00
54648;BME280;40543;53.584;9.858;2023-03-24T05:47:05;54504.50;;;-144.59;100.00
54648;BME280;40543;53.584;9.858;2023-03-24T05:49:31;54502.47;;;-144.59;100.00
54648;BME280;40543;53.584;9.858;2023-03-24T05:51:56;54510.56;;;-144.59;100.00
54648;BME280;40543;53.584;9.858;2023-03-24T05:54:21;54526.72;;;-144.59;100.00
54648;BME280;40543;53.584;9.858;2023-03-24T05:56:48;54510.56;;;-144.59;100.00
54648;BME280;40543;53.584;9.858;2023-03-24T05:59:13;54536.84;;;-144.59;100.00
54648;BME280;40543;53.584;9.858;2023-03-24T06:01:40;54577.28;;;-144.59;100.00
54648;BME280;40543;53.584;9.858;2023-03-24T06:04:07;54516.63;;;-144.59;100.00
54648;BME280;40543;53.584;9.858;2023-03-24T06:06:32;54455.97;;;-144.59;100.00
54648;BME280;40543;53.584;9.858;2023-03-24T06:08:58;54488.31;;;-144.59;100.00
54648;BME280;40543;53.584;9.858;2023-03-24T06:11:26;54482.25;;;-144.59;100.00
54648;BME280;40543;53.584;9.858;2023-03-24T06:13:52;54492.38;;;-144.59;100.00
54648;BME280;40543;53.584;9.858;2023-03-24T06:16:17;54496.41;;;-144.59;100.00
54648;BME280;40543;53.584;9.858;2023-03-24T06:18:47;54504.50;;;-144.59;100.00
54648;BME280;40543;53.584;9.858;2023-03-24T06:21:16;54502.47;;;-144.59;100.00
54648;BME280;40543;53.584;9.858;2023-03-24T06:23:42;54480.25;;;-144.59;100.00
54648;BME280;40543;53.584;9.858;2023-03-24T06:26:09;54496.41;;;-144.59;100.00
54648;BME280;40543;53.584;9.858;2023-03-24T06:28:35;54512.59;;;-144.59;100.00
54648;BME280;40543;53.584;9.858;2023-03-24T06:31:05;54484.28;;;-144.59;100.00
54648;BME280;40543;53.584;9.858;2023-03-24T06:33:31;54498.44;;;-144.59;100.00
54648;BME280;40543;53.584;9.858;2023-03-24T06:35:56;54484.28;;;-144.59;100.00
54648;BME280;40543;53.584;9.858;2023-03-24T06:38:22;54502.47;;;-144.59;100.00
54648;BME280;40543;53.584;9.858;2023-03-24T06:40:47;54492.38;;;-144.59;100.00
54648;BME280;40543;53.584;9.858;2023-03-24T06:43:12;54500.44;;;-144.59;100.00
54648;BME280;40543;53.584;9.858;2023-03-24T06:45:38;54498.44;;;-144.59;100.00
54648;BME280;40543;53.584;9.858;2023-03-24T06:48:06;54512.59;;;-144.59;100.00
54648;BME280;40543;53.584;9.858;2023-03-24T06:50:31;54496.41;;;-144.59;100.00
54648;BME280;40543;53.584;9.858;2023-03-24T06:53:00;54484.28;;;-144.59;100.00
54648;BME280;40543;53.584;9.858;2023-03-24T06:55:26;54453.97;;;-144.59;100.00
54648;BME280;40543;53.584;9.858;2023-03-24T06:57:52;54514.59;;;-144.59;100.00
54648;BME280;40543;53.584;9.858;2023-03-24T07:00:18;54490.34;;;-144.59;100.00
54648;BME280;40543;53.584;9.858;2023-03-24T07:02:44;54476.19;;;-144.59;100.00
54648;BME280;40543;53.584;9.858;2023-03-24T07:05:10;54480.25;;;-144.59;100.00
54648;BME280;40543;53.584;9.858;2023-03-24T07:07:37;54512.59;;;-144.59;100.00
54648;BME280;40543;53.584;9.858;2023-03-24T07:10:04;54476.19;;;-144.59;100.00
54648;BME280;40543;53.584;9.858;2023-03-24T07:12:30;54516.63;;;-144.59;100.00
54648;BME280;40543;53.584;9.858;2023-03-24T07:14:56;54472.16;;;-144.59;100.00
54648;BME280;40543;53.584;9.858;2023-03-24T07:17:23;54435.75;;;-144.59;100.00
54648;BME280;40543;53.584;9.858;2023-03-24T07:19:48;54415.53;;;-144.59;100.00
54648;BME280;40543;53.584;9.858;2023-03-24T07:22:14;54470.13;;;-144.59;100.00
54648;BME280;40543;53.584;9.858;2023-03-24T07:24:39;54484.28;;;-144.59;100.00
54648;BME280;40543;53.584;9.858;2023-03-24T07:27:05;54464.06;;;-144.59;100.00
54648;BME280;40543;53.584;9.858;2023-03-24T07:29:31;54464.06;;;-144.59;100.00
54648;BME280;40543;53.584;9.858;2023-03-24T07:31:56;54455.97;;;-144.59;100.00
54648;BME280;40543;53.584;9.858;2023-03-24T07:34:23;54407.47;;;-144.59;100.00
54648;BME280;40543;53.584;9.858;2023-03-24T07:36:49;54393.31;;;-144.59;100.00
54648;BME280;40543;53.584;9.858;2023-03-24T07:39:15;54389.25;;;-144.59;100.00
54648;BME280;40543;53.584;9.858;2023-03-24T07:41:41;54405.44;;;-144.59;100.00
54648;BME280;40543;53.584;9.858;2023-03-24T07:44:07;54427.69;;;-144.59;100.00
54648;BME280;40543;53.584;9.858;2023-03-24T07:46:32;54399.38;;;-144.59;100.00
54648;BME280;40543;53.584;9.858;2023-03-24T07:48:58;54354.91;;;-144.59;100.00
54648;BME280;40543;53.584;9.858;2023-03-24T07:51:23;54387.25;;;-144.59;100.00
54648;BME280;40543;53.584;9.858;2023-03-24T07:53:48;54437.78;;;-144.59;100.00
54648;BME280;40543;53.584;9.858;2023-03-24T07:56:14;54330.63;;;-144.59;100.00
54648;BME280;40543;53.584;9.858;2023-03-24T07:58:39;54292.22;;;-144.59;100.00
54648;BME280;40543;53.584;9.858;2023-03-24T08:01:06;54286.16;;;-144.59;100.00
54648;BME280;40543;53.584;9.858;2023-03-24T08:03:37;54326.59;;;-144.59;100.00
54648;BME280;40543;53.584;9.858;2023-03-24T08:06:03;54306.38;;;-144.59;100.00
54648;BME280;40543;53.584;9.858;2023-03-24T08:08:29;54300.31;;;-144.59;100.00
54648;BME280;40543;53.584;9.858;2023-03-24T08:10:56;54367.03;;;-144.59;100.00
54648;BME280;40543;53.584;9.858;2023-03-24T08:13:21;54312.44;;;-144.59;100.00
54648;BME280;40543;53.584;9.858;2023-03-24T08:15:47;54395.34;;;-144.59;100.00
54648;BME280;40543;53.584;9.858;2023-03-24T08:18:12;54409.47;;;-144.59;100.00
54648;BME280;40543;53.584;9.858;2023-03-24T08:20:38;54377.13;;;-144.59;100.00
54648;BME280;40543;53.584;9.858;2023-03-24T08:23:03;54389.25;;;-144.59;100.00
54648;BME280;40543;53.584;9.858;2023-03-24T08:25:29;54417.56;;;-144.59;100.00
54648;BME280;40543;53.584;9.858;2023-03-24T08:27:55;54419.59;;;-144.59;100.00
54648;BME280;40543;53.584;9.858;2023-03-24T08:30:22;54395.34;;;-144.59;100.00
54648;BME280;40543;53.584;9.858;2023-03-24T08:32:53;54383.19;;;-144.59;100.00
54648;BME280;40543;53.584;9.858;2023-03-24T08:35:22;54324.56;;;-144.59;100.00
54648;BME280;40543;53.584;9.858;2023-03-24T08:37:48;54403.41;;;-144.59;100.00
54648;BME280;40543;53.584;9.858;2023-03-24T08:40:17;54423.63;;;-144.59;100.00
54648;BME280;40543;53.584;9.858;2023-03-24T08:42:47;54358.94;;;-144.59;100.00
54648;BME280;40543;53.584;9.858;2023-03-24T08:45:13;54383.19;;;-144.59;100.00
54648;BME280;40543;53.584;9.858;2023-03-24T08:47:39;54391.28;;;-144.59;100.00
54648;BME280;40543;53.584;9.858;2023-03-24T08:50:06;54401.41;;;-144.59;100.00
54648;BME280;40543;53.584;9.858;2023-03-24T08:52:32;54350.84;;;-144.59;100.00
54648;BME280;40543;53.584;9.858;2023-03-24T08:54:58;54267.97;;;-144.59;100.00
54648;BME280;40543;53.584;9.858;2023-03-24T08:57:23;54158.81;;;-144.59;100.00
54648;BME280;40543;53.584;9.858;2023-03-24T08:59:48;54385.22;;;-144.59;100.00
54648;BME280;40543;53.584;9.858;2023-03-24T09:02:14;54201.25;;;-144.59;100.00
54648;BME280;40543;53.584;9.858;2023-03-24T09:04:39;54348.84;;;-144.59;100.00
54648;BME280;40543;53.584;9.858;2023-03-24T09:07:06;54334.69;;;-144.59;100.00
54648;BME280;40543;53.584;9.858;2023-03-24T09:09:33;54338.72;;;-144.59;100.00
54648;BME280;40543;53.584;9.858;2023-03-24T09:11:58;54401.41;;;-144.59;100.00
54648;BME280;40543;53.584;9.858;2023-03-24T09:14:24;54375.13;;;-144.59;100.00
54648;BME280;40543;53.584;9.858;2023-03-24T09:16:49;54338.72;;;-144.59;100.00
54648;BME280;40543;53.584;9.858;2023-03-24T09:19:16;54393.31;;;-144.59;100.00
54648;BME280;40543;53.584;9.858;2023-03-24T09:21:45;54193.19;;;-144.59;100.00
54648;BME280;40543;53.584;9.858;2023-03-24T09:24:11;54316.50;;;-144.59;100.00
54648;BME280;40543;53.584;9.858;2023-03-24T09:26:37;54350.84;;;-144.59;100.00
54648;BME280;40543;53.584;9.858;2023-03-24T09:29:02;54308.41;;;-144.59;100.00
54648;BME280;40543;53.584;9.858;2023-03-24T09:31:28;54334.69;;;-144.59;100.00
54648;BME280;40543;53.584;9.858;2023-03-24T09:33:53;54189.13;;;-144.59;100.00
54648;BME280;40543;53.584;9.858;2023-03-24T09:36:18;54399.38;;;-144.59;100.00
54648;BME280;40543;53.584;9.858;2023-03-24T09:38:44;54379.16;;;-144.59;100.00
54648;BME280;40543;53.584;9.858;2023-03-24T09:41:16;54387.25;;;-144.59;100.00
54648;BME280;40543;53.584;9.858;2023-03-24T09:43:45;54403.41;;;-144.59;100.00
54648;BME280;40543;53.584;9.858;2023-03-24T09:46:25;54403.41;;;-144.59;100.00
54648;BME280;40543;53.584;9.858;2023-03-24T09:48:55;54383.19;;;-144.59;100.00
54648;BME280;40543;53.584;9.858;2023-03-24T09:56:32;54375.13;;;-144.59;100.00
54648;BME280;40543;53.584;9.858;2023-03-24T09:59:18;54360.97;;;-144.59;100.00
54648;BME280;40543;53.584;9.858;2023-03-24T10:01:44;54395.34;;;-144.59;100.00
54648;BME280;40543;53.584;9.858;2023-03-24T10:04:16;54318.50;;;-144.59;100.00
54648;BME280;40543;53.584;9.858;2023-03-24T10:06:42;54348.84;;;-144.59;100.00
54648;BME280;40543;53.584;9.858;2023-03-24T10:15:09;54371.06;;;-144.59;100.00
54648;BME280;40543;53.584;9.858;2023-03-24T10:20:33;54326.59;;;-144.59;100.00
54648;BME280;40543;53.584;9.858;2023-03-24T10:25:43;54241.69;;;-144.59;100.00
54648;BME280;40543;53.584;9.858;2023-03-24T10:31:07;54348.84;;;-144.59;100.00
54648;BME280;40543;53.584;9.858;2023-03-24T10:33:35;54318.50;;;-144.59;100.00
54648;BME280;40543;53.584;9.858;2023-03-24T10:36:14;54286.16;;;-144.59;100.00
54648;BME280;40543;53.584;9.858;2023-03-24T10:38:42;54328.63;;;-144.59;100.00
54648;BME280;40543;53.584;9.858;2023-03-24T10:41:15;54318.50;;;-144.59;100.00
54648;BME280;40543;53.584;9.858;2023-03-24T10:43:43;54282.13;;;-144.59;100.00
54648;BME280;40543;53.584;9.858;2023-03-24T10:46:11;54334.69;;;-144.59;100.00
54648;BME280;40543;53.584;9.858;2023-03-24T10:51:05;54253.81;;;-144.59;98.75
54648;BME280;40543;53.584;9.858;2023-03-24T10:53:30;54243.72;;;-144.59;89.52
54648;BME280;40543;53.584;9.858;2023-03-24T10:55:57;54096.16;;;-144.59;89.05
54648;BME280;40543;53.584;9.858;2023-03-24T11:00:57;54221.47;;;-144.59;85.46
54648;BME280;40543;53.584;9.858;2023-03-24T11:03:29;54215.41;;;-144.59;83.14
54648;BME280;40543;53.584;9.858;2023-03-24T11:06:00;54253.81;;;-144.59;86.36
54648;BME280;40543;53.584;9.858;2023-03-24T11:08:32;54221.47;;;-144.59;85.43
54648;BME280;40543;53.584;9.858;2023-03-24T11:10:58;54272.00;;;-144.59;85.65
54648;BME280;40543;53.584;9.858;2023-03-24T11:13:32;54308.41;;;-144.59;85.08
54648;BME280;40543;53.584;9.858;2023-03-24T11:16:15;54181.03;;;-144.59;71.63
54648;BME280;40543;53.584;9.858;2023-03-24T11:21:21;54172.97;;;-144.59;64.55
54648;BME280;40543;53.584;9.858;2023-03-24T11:23:46;53954.66;;;-144.59;58.67
54648;BME280;40543;53.584;9.858;2023-03-24T11:31:12;53906.13;;;-144.59;49.92
54648;BME280;40543;53.584;9.858;2023-03-24T11:33:56;53964.75;;;-144.59;48.80
54648;BME280;40543;53.584;9.858;2023-03-24T11:41:37;54233.59;;;-144.59;56.53
54648;BME280;40543;53.584;9.858;2023-03-24T11:44:16;54274.03;;;-144.59;65.23
54648;BME280;40543;53.584;9.858;2023-03-24T11:46:45;54296.28;;;-144.59;70.24
54648;BME280;40543;53.584;9.858;2023-03-24T11:49:15;54031.47;;;-144.59;68.05
54648;BME280;40543;53.584;9.858;2023-03-24T11:51:42;53950.59;;;-144.59;49.35
54648;BME280;40543;53.584;9.858;2023-03-24T11:54:16;54217.44;;;-144.59;49.07
54648;BME280;40543;53.584;9.858;2023-03-24T11:56:50;54031.47;;;-144.59;46.75
54648;BME280;40543;53.584;9.858;2023-03-24T11:59:27;53930.38;;;-144.59;48.78
54648;BME280;40543;53.584;9.858;2023-03-24T12:04:43;53837.41;;;-144.59;42.83
54648;BME280;40543;53.584;9.858;2023-03-24T12:10:20;54013.25;;;-144.59;43.37
54648;BME280;40543;53.584;9.858;2023-03-24T12:18:34;53930.38;;;-144.59;46.57
54648;BME280;40543;53.584;9.858;2023-03-24T12:26:38;53883.91;;;-144.59;40.51
54648;BME280;40543;53.584;9.858;2023-03-24T12:32:13;53760.59;;;-144.59;37.88
54648;BME280;40543;53.584;9.858;2023-03-24T12:37:39;54084.00;;;-144.59;42.52
54648;BME280;40543;53.584;9.858;2023-03-24T12:42:42;53699.97;;;-144.59;43.06
54648;BME280;40543;53.584;9.858;2023-03-24T12:45:18;54132.53;;;-144.59;37.67
54648;BME280;40543;53.584;9.858;2023-03-24T12:55:58;53611.03;;;-144.59;34.88
54648;BME280;40543;53.584;9.858;2023-03-24T12:58:43;53803.03;;;-144.59;33.08
54648;BME280;40543;53.584;9.858;2023-03-24T13:01:38;53615.06;;;-144.59;34.03
54648;BME280;40543;53.584;9.858;2023-03-24T13:07:15;53538.25;;;-144.59;31.66
54648;BME280;40543;53.584;9.858;2023-03-24T13:20:04;54174.97;;;-144.59;42.73
54648;BME280;40543;53.584;9.858;2023-03-24T13:22:33;53712.09;;;-144.59;46.09
54648;BME280;40543;53.584;9.858;2023-03-24T13:25:01;53580.72;;;-144.59;33.84
54648;BME280;40543;53.584;9.858;2023-03-24T13:27:31;54116.34;;;-144.59;32.70
54648;BME280;40543;53.584;9.858;2023-03-24T13:30:22;53611.03;;;-144.59;31.48
54648;BME280;40543;53.584;9.858;2023-03-24T13:32:59;53592.84;;;-144.59;29.48
54648;BME280;40543;53.584;9.858;2023-03-24T13:40:52;54191.16;;;-144.59;35.47
54648;BME280;40543;53.584;9.858;2023-03-24T13:43:27;53708.03;;;-144.59;39.18
54648;BME280;40543;53.584;9.858;2023-03-24T13:46:19;53600.91;;;-144.59;32.99
54648;BME280;40543;53.584;9.858;2023-03-24T13:48:54;53520.06;;;-144.59;31.71
54648;BME280;40543;53.584;9.858;2023-03-24T13:51:28;53514.00;;;-144.59;29.88
54648;BME280;40543;53.584;9.858;2023-03-24T13:54:25;53487.72;;;-144.59;29.65
54648;BME280;40543;53.584;9.858;2023-03-24T13:56:54;53505.94;;;-144.59;29.90
54648;BME280;40543;53.584;9.858;2023-03-24T13:59:56;53477.63;;;-144.59;29.67
54648;BME280;40543;53.584;9.858;2023-03-24T14:15:28;53572.63;;;-144.59;31.09
54648;BME280;40543;53.584;9.858;2023-03-24T14:17:56;53536.25;;;-144.59;29.92
54648;BME280;40543;53.584;9.858;2023-03-24T14:20:38;53503.91;;;-144.59;29.96
54648;BME280;40543;53.584;9.858;2023-03-24T14:23:19;53671.66;;;-144.59;31.84
54648;BME280;40543;53.584;9.858;2023-03-24T14:25:52;54181.03;;;-144.59;31.67
54648;BME280;40543;53.584;9.858;2023-03-24T14:28:31;53821.25;;;-144.59;35.03
54648;BME280;40543;53.584;9.858;2023-03-24T14:31:01;54152.75;;;-144.59;34.41
54648;BME280;40543;53.584;9.858;2023-03-24T14:33:27;54174.97;;;-144.59;36.91
54648;BME280;40543;53.584;9.858;2023-03-24T14:36:02;54071.88;;;-144.59;38.33
54648;BME280;40543;53.584;9.858;2023-03-24T14:38:37;53912.19;;;-144.59;37.59
54648;BME280;40543;53.584;9.858;2023-03-24T14:41:13;54168.91;;;-144.59;38.61
54648;BME280;40543;53.584;9.858;2023-03-24T14:46:37;54170.94;;;-144.59;38.65
54648;BME280;40543;53.584;9.858;2023-03-24T14:49:14;54207.31;;;-144.59;40.58
54648;BME280;40543;53.584;9.858;2023-03-24T14:51:46;54090.06;;;-144.59;39.96
54648;BME280;40543;53.584;9.858;2023-03-24T14:54:28;53908.16;;;-144.59;39.40
54648;BME280;40543;53.584;9.858;2023-03-24T14:56:57;53863.69;;;-144.59;37.59
54648;BME280;40543;53.584;9.858;2023-03-24T15:01:50;53970.81;;;-144.59;36.69
54648;BME280;40543;53.584;9.858;2023-03-24T15:04:20;54120.41;;;-144.59;37.14
54648;BME280;40543;53.584;9.858;2023-03-24T15:06:47;53993.06;;;-144.59;36.11
54648;BME280;40543;53.584;9.858;2023-03-24T15:09:16;54031.47;;;-144.59;36.06
54648;BME280;40543;53.584;9.858;2023-03-24T15:11:43;53730.28;;;-144.59;35.34
54648;BME280;40543;53.584;9.858;2023-03-24T15:14:23;54132.53;;;-144.59;36.49
54648;BME280;40543;53.584;9.858;2023-03-24T15:16:52;53627.19;;;-144.59;34.09
54648;BME280;40543;53.584;9.858;2023-03-24T15:19:24;53483.69;;;-144.59;32.18